sensor_id;sensor_type;location;lat;lon;timestamp;temperature;humidity
18163;DHT22;9206;50.994;4.538;2024-02-23T00:01:19;5.70;99.90
18163;DHT22;9206;50.994;4.538;2024-02-23T00:04:09;5.70;99.90
18163;DHT22;9206;50.994;4.538;2024-02-23T00:06:59;5.70;99.90
18163;DHT22;9206;50.994;4.538;2024-02-23T00:09:48;5.70;99.90
18163;DHT22;9206;50.994;4.538;2024-02-23T00:12:38;5.60;99.90
18163;DHT22;9206;50.994;4.538;2024-02-23T00:15:27;5.70;99.90
18163;DHT22;9206;50.994;4.538;2024-02-23T00:21:39;5.60;99.90
18163;DHT22;9206;50.994;4.538;2024-02-23T00:24:34;5.60;99.90
18163;DHT22;9206;50.994;4.538;2024-02-23T00:27:25;5.60;99.90
18163;DHT22;9206;50.994;4.538;2024-02-23T00:30:19;5.60;99.90
18163;DHT22;9206;50.994;4.538;2024-02-23T00:33:11;5.60;99.90
18163;DHT22;9206;50.994;4.538;2024-02-23T00:36:06;5.50;99.90
18163;DHT22;9206;50.994;4.538;2024-02-23T00:38:58;5.60;99.90
18163;DHT22;9206;50.994;4.538;2024-02-23T00:41:49;5.60;99.90
18163;DHT22;9206;50.994;4.538;2024-02-23T00:44:36;5.70;99.90
18163;DHT22;9206;50.994;4.538;2024-02-23T00:47:29;5.70;99.90
18163;DHT22;9206;50.994;4.538;2024-02-23T00:50:20;5.70;99.90
18163;DHT22;9206;50.994;4.538;2024-02-23T00:53:12;5.60;99.90
18163;DHT22;9206;50.994;4.538;2024-02-23T00:55:59;5.60;99.90
18163;DHT22;9206;50.994;4.538;2024-02-23T00:58:47;5.60;99.90
18163;DHT22;9206;50.994;4.538;2024-02-23T01:01:38;5.50;99.90
18163;DHT22;9206;50.994;4.538;2024-02-23T01:04:27;5.40;99.90
18163;DHT22;9206;50.994;4.538;2024-02-23T01:07:18;5.40;99.90
18163;DHT22;9206;50.994;4.538;2024-02-23T01:10:08;5.40;99.90
18163;DHT22;9206;50.994;4.538;2024-02-23T01:12:55;5.30;99.90
18163;DHT22;9206;50.994;4.538;2024-02-23T01:15:49;5.30;99.90
18163;DHT22;9206;50.994;4.538;2024-02-23T01:18:40;5.20;99.90
18163;DHT22;9206;50.994;4.538;2024-02-23T01:21:30;5.20;99.90
18163;DHT22;9206;50.994;4.538;2024-02-23T01:24:18;5.20;99.90
18163;DHT22;9206;50.994;4.538;2024-02-23T01:27:06;5.20;99.90
18163;DHT22;9206;50.994;4.538;2024-02-23T01:29:54;5.20;99.90
18163;DHT22;9206;50.994;4.538;2024-02-23T01:32:44;5.20;99.90
18163;DHT22;9206;50.994;4.538;2024-02-23T01:35:58;5.20;99.90
18163;DHT22;9206;50.994;4.538;2024-02-23T01:38:48;5.20;99.90
18163;DHT22;9206;50.994;4.538;2024-02-23T01:41:39;5.20;99.90
18163;DHT22;9206;50.994;4.538;2024-02-23T01:44:31;5.10;99.90
18163;DHT22;9206;50.994;4.538;2024-02-23T01:47:19;5.20;99.90
18163;DHT22;9206;50.994;4.538;2024-02-23T01:50:12;5.20;99.90
18163;DHT22;9206;50.994;4.538;2024-02-23T01:53:01;5.20;99.90
18163;DHT22;9206;50.994;4.538;2024-02-23T01:55:52;5.20;99.90
18163;DHT22;9206;50.994;4.538;2024-02-23T01:58:41;5.20;99.90
18163;DHT22;9206;50.994;4.538;2024-02-23T02:01:32;5.20;99.90
18163;DHT22;9206;50.994;4.538;2024-02-23T02:04:19;5.20;99.90
18163;DHT22;9206;50.994;4.538;2024-02-23T02:07:06;5.20;99.90
18163;DHT22;9206;50.994;4.538;2024-02-23T02:09:59;5.20;99.90
18163;DHT22;9206;50.994;4.538;2024-02-23T02:12:49;5.20;99.90
18163;DHT22;9206;50.994;4.538;2024-02-23T02:15:39;5.20;99.90
18163;DHT22;9206;50.994;4.538;2024-02-23T02:18:26;5.20;99.90
18163;DHT22;9206;50.994;4.538;2024-02-23T02:21:14;5.20;99.90
18163;DHT22;9206;50.994;4.538;2024-02-23T02:24:01;5.10;99.90
18163;DHT22;9206;50.994;4.538;2024-02-23T02:26:49;5.10;99.90
18163;DHT22;9206;50.994;4.538;2024-02-23T02:29:38;5.00;99.90
18163;DHT22;9206;50.994;4.538;2024-02-23T02:32:27;5.00;99.90
18163;DHT22;9206;50.994;4.538;2024-02-23T02:35:17;5.00;99.90
18163;DHT22;9206;50.994;4.538;2024-02-23T02:38:10;5.00;99.90
18163;DHT22;9206;50.994;4.538;2024-02-23T02:40:58;5.00;99.90
18163;DHT22;9206;50.994;4.538;2024-02-23T02:43:46;5.00;99.90
18163;DHT22;9206;50.994;4.538;2024-02-23T02:46:35;5.10;99.90
18163;DHT22;9206;50.994;4.538;2024-02-23T02:49:27;5.10;99.90
18163;DHT22;9206;50.994;4.538;2024-02-23T02:52:14;5.10;99.90
18163;DHT22;9206;50.994;4.538;2024-02-23T02:55:05;5.20;99.90
18163;DHT22;9206;50.994;4.538;2024-02-23T02:57:53;5.20;99.90
18163;DHT22;9206;50.994;4.538;2024-02-23T03:00:42;5.20;99.90
18163;DHT22;9206;50.994;4.538;2024-02-23T03:03:32;5.10;99.90
18163;DHT22;9206;50.994;4.538;2024-02-23T03:06:22;5.20;99.90
18163;DHT22;9206;50.994;4.538;2024-02-23T03:09:11;5.20;99.90
18163;DHT22;9206;50.994;4.538;2024-02-23T03:11:58;5.30;99.90
18163;DHT22;9206;50.994;4.538;2024-02-23T03:14:45;5.30;99.90
18163;DHT22;9206;50.994;4.538;2024-02-23T03:17:32;5.30;99.90
18163;DHT22;9206;50.994;4.538;2024-02-23T03:20:22;5.30;99.90
18163;DHT22;9206;50.994;4.538;2024-02-23T03:23:11;5.40;99.90
18163;DHT22;9206;50.994;4.538;2024-02-23T03:26:02;5.40;99.90
18163;DHT22;9206;50.994;4.538;2024-02-23T03:29:11;5.30;99.90
18163;DHT22;9206;50.994;4.538;2024-02-23T03:32:05;5.40;99.90
18163;DHT22;9206;50.994;4.538;2024-02-23T03:34:52;5.30;99.90
18163;DHT22;9206;50.994;4.538;2024-02-23T03:37:42;5.30;99.90
18163;DHT22;9206;50.994;4.538;2024-02-23T03:40:32;5.30;99.90
18163;DHT22;9206;50.994;4.538;2024-02-23T03:43:22;5.40;99.90
18163;DHT22;9206;50.994;4.538;2024-02-23T03:46:12;5.40;99.90
18163;DHT22;9206;50.994;4.538;2024-02-23T03:49:03;5.40;99.90
18163;DHT22;9206;50.994;4.538;2024-02-23T03:51:50;5.50;99.90
18163;DHT22;9206;50.994;4.538;2024-02-23T03:54:37;5.50;99.90
18163;DHT22;9206;50.994;4.538;2024-02-23T03:57:39;5.50;99.90
18163;DHT22;9206;50.994;4.538;2024-02-23T04:00:26;5.60;99.90
18163;DHT22;9206;50.994;4.538;2024-02-23T04:03:15;5.60;99.90
18163;DHT22;9206;50.994;4.538;2024-02-23T04:06:02;5.60;99.90
18163;DHT22;9206;50.994;4.538;2024-02-23T04:08:50;5.70;99.90
18163;DHT22;9206;50.994;4.538;2024-02-23T04:11:39;5.70;99.90
18163;DHT22;9206;50.994;4.538;2024-02-23T04:14:27;5.80;99.90
18163;DHT22;9206;50.994;4.538;2024-02-23T04:17:14;5.80;99.90
18163;DHT22;9206;50.994;4.538;2024-02-23T04:20:06;5.80;99.90
18163;DHT22;9206;50.994;4.538;2024-02-23T04:22:53;5.80;99.90
18163;DHT22;9206;50.994;4.538;2024-02-23T04:25:43;5.80;99.90
18163;DHT22;9206;50.994;4.538;2024-02-23T04:28:32;5.80;99.90
18163;DHT22;9206;50.994;4.538;2024-02-23T04:31:23;5.80;99.90
18163;DHT22;9206;50.994;4.538;2024-02-23T04:34:10;5.90;99.90
18163;DHT22;9206;50.994;4.538;2024-02-23T04:37:00;5.80;99.90
18163;DHT22;9206;50.994;4.538;2024-02-23T04:39:50;5.90;99.90
18163;DHT22;9206;50.994;4.538;2024-02-23T04:42:37;5.90;99.90
18163;DHT22;9206;50.994;4.538;2024-02-23T04:45:25;5.80;99.90
18163;DHT22;9206;50.994;4.538;2024-02-23T04:48:20;5.90;99.90
18163;DHT22;9206;50.994;4.538;2024-02-23T04:51:07;5.90;99.90
18163;DHT22;9206;50.994;4.538;2024-02-23T04:53:55;5.80;99.90
18163;DHT22;9206;50.994;4.538;2024-02-23T04:56:42;5.80;99.90
18163;DHT22;9206;50.994;4.538;2024-02-23T04:59:32;5.80;99.90
18163;DHT22;9206;50.994;4.538;2024-02-23T05:02:20;5.80;99.90
18163;DHT22;9206;50.994;4.538;2024-02-23T05:05:09;5.80;99.90
18163;DHT22;9206;50.994;4.538;2024-02-23T05:07:56;5.70;99.90
18163;DHT22;9206;50.994;4.538;2024-02-23T05:10:46;5.70;99.90
18163;DHT22;9206;50.994;4.538;2024-02-23T05:13:34;5.80;99.90
18163;DHT22;9206;50.994;4.538;2024-02-23T05:16:25;5.80;99.90
18163;DHT22;9206;50.994;4.538;2024-02-23T05:19:18;5.90;99.90
18163;DHT22;9206;50.994;4.538;2024-02-23T05:22:06;5.90;99.90
18163;DHT22;9206;50.994;4.538;2024-02-23T05:24:56;5.90;99.90
18163;DHT22;9206;50.994;4.538;2024-02-23T05:27:45;5.90;99.90
18163;DHT22;9206;50.994;4.538;2024-02-23T05:30:32;5.90;99.90
18163;DHT22;9206;50.994;4.538;2024-02-23T05:33:19;5.80;99.90
18163;DHT22;9206;50.994;4.538;2024-02-23T05:36:07;5.90;99.90
18163;DHT22;9206;50.994;4.538;2024-02-23T05:38:56;5.90;99.90
18163;DHT22;9206;50.994;4.538;2024-02-23T05:41:43;5.90;99.90
18163;DHT22;9206;50.994;4.538;2024-02-23T05:44:31;5.90;99.90
18163;DHT22;9206;50.994;4.538;2024-02-23T05:47:22;5.90;99.90
18163;DHT22;9206;50.994;4.538;2024-02-23T05:50:12;5.90;99.90
18163;DHT22;9206;50.994;4.538;2024-02-23T05:53:02;6.00;99.90
18163;DHT22;9206;50.994;4.538;2024-02-23T05:55:59;5.90;99.90
18163;DHT22;9206;50.994;4.538;2024-02-23T05:58:49;5.90;99.90
18163;DHT22;9206;50.994;4.538;2024-02-23T06:01:40;5.90;99.90
18163;DHT22;9206;50.994;4.538;2024-02-23T06:04:30;5.90;99.90
18163;DHT22;9206;50.994;4.538;2024-02-23T06:07:17;5.90;99.90
18163;DHT22;9206;50.994;4.538;2024-02-23T06:10:24;5.90;99.90
18163;DHT22;9206;50.994;4.538;2024-02-23T06:13:15;5.90;99.90
18163;DHT22;9206;50.994;4.538;2024-02-23T06:16:11;5.90;99.90
18163;DHT22;9206;50.994;4.538;2024-02-23T06:19:02;5.90;99.90
18163;DHT22;9206;50.994;4.538;2024-02-23T06:21:52;5.90;99.90
18163;DHT22;9206;50.994;4.538;2024-02-23T06:24:39;5.90;99.90
18163;DHT22;9206;50.994;4.538;2024-02-23T06:27:27;5.90;99.90
18163;DHT22;9206;50.994;4.538;2024-02-23T06:30:19;5.90;99.90
18163;DHT22;9206;50.994;4.538;2024-02-23T06:33:07;6.00;99.90
18163;DHT22;9206;50.994;4.538;2024-02-23T06:35:54;6.00;99.90
18163;DHT22;9206;50.994;4.538;2024-02-23T06:38:41;6.00;99.90
18163;DHT22;9206;50.994;4.538;2024-02-23T06:41:31;6.00;99.90
18163;DHT22;9206;50.994;4.538;2024-02-23T06:44:18;6.00;99.90
18163;DHT22;9206;50.994;4.538;2024-02-23T06:47:19;6.00;99.90
18163;DHT22;9206;50.994;4.538;2024-02-23T06:50:13;6.00;99.90
18163;DHT22;9206;50.994;4.538;2024-02-23T06:53:03;6.00;99.90
18163;DHT22;9206;50.994;4.538;2024-02-23T06:55:53;6.00;99.90
18163;DHT22;9206;50.994;4.538;2024-02-23T06:58:40;6.00;99.90
18163;DHT22;9206;50.994;4.538;2024-02-23T07:01:29;6.10;99.90
18163;DHT22;9206;50.994;4.538;2024-02-23T07:04:18;6.10;99.90
18163;DHT22;9206;50.994;4.538;2024-02-23T07:07:05;6.10;99.90
18163;DHT22;9206;50.994;4.538;2024-02-23T07:09:59;6.20;99.90
18163;DHT22;9206;50.994;4.538;2024-02-23T07:12:48;6.20;99.90
18163;DHT22;9206;50.994;4.538;2024-02-23T07:15:38;6.20;99.90
18163;DHT22;9206;50.994;4.538;2024-02-23T07:18:25;6.20;99.90
18163;DHT22;9206;50.994;4.538;2024-02-23T07:21:18;6.20;99.90
18163;DHT22;9206;50.994;4.538;2024-02-23T07:24:06;6.30;99.90
18163;DHT22;9206;50.994;4.538;2024-02-23T07:26:53;6.30;99.90
18163;DHT22;9206;50.994;4.538;2024-02-23T07:29:41;6.30;99.90
18163;DHT22;9206;50.994;4.538;2024-02-23T07:32:28;6.30;99.90
18163;DHT22;9206;50.994;4.538;2024-02-23T07:35:18;6.30;99.90
18163;DHT22;9206;50.994;4.538;2024-02-23T07:38:07;6.30;99.90
18163;DHT22;9206;50.994;4.538;2024-02-23T07:40:54;6.30;99.90
18163;DHT22;9206;50.994;4.538;2024-02-23T07:43:41;6.40;99.90
18163;DHT22;9206;50.994;4.538;2024-02-23T07:46:31;6.40;99.90
18163;DHT22;9206;50.994;4.538;2024-02-23T07:49:22;6.40;99.90
18163;DHT22;9206;50.994;4.538;2024-02-23T07:52:10;6.50;99.90
18163;DHT22;9206;50.994;4.538;2024-02-23T07:55:01;6.50;99.90
18163;DHT22;9206;50.994;4.538;2024-02-23T07:57:52;6.60;99.90
18163;DHT22;9206;50.994;4.538;2024-02-23T08:00:45;6.60;99.90
18163;DHT22;9206;50.994;4.538;2024-02-23T08:03:32;6.70;99.90
18163;DHT22;9206;50.994;4.538;2024-02-23T08:06:20;6.70;99.90
18163;DHT22;9206;50.994;4.538;2024-02-23T08:09:10;6.80;99.90
18163;DHT22;9206;50.994;4.538;2024-02-23T08:12:00;6.80;99.90
18163;DHT22;9206;50.994;4.538;2024-02-23T08:14:50;6.80;99.90
18163;DHT22;9206;50.994;4.538;2024-02-23T08:17:43;6.80;99.90
18163;DHT22;9206;50.994;4.538;2024-02-23T08:20:34;6.90;99.90
18163;DHT22;9206;50.994;4.538;2024-02-23T08:23:23;6.80;99.90
18163;DHT22;9206;50.994;4.538;2024-02-23T08:26:16;6.90;99.90
18163;DHT22;9206;50.994;4.538;2024-02-23T08:29:08;6.80;99.90
18163;DHT22;9206;50.994;4.538;2024-02-23T08:32:01;6.60;99.90
18163;DHT22;9206;50.994;4.538;2024-02-23T08:34:48;6.50;99.90
18163;DHT22;9206;50.994;4.538;2024-02-23T08:37:37;6.40;99.90
18163;DHT22;9206;50.994;4.538;2024-02-23T08:40:25;6.30;99.90
18163;DHT22;9206;50.994;4.538;2024-02-23T08:43:13;6.20;99.90
18163;DHT22;9206;50.994;4.538;2024-02-23T08:46:02;6.10;99.90
18163;DHT22;9206;50.994;4.538;2024-02-23T08:48:52;6.00;99.90
18163;DHT22;9206;50.994;4.538;2024-02-23T08:51:41;6.00;99.90
18163;DHT22;9206;50.994;4.538;2024-02-23T08:54:28;5.90;99.90
18163;DHT22;9206;50.994;4.538;2024-02-23T08:57:15;5.90;99.90
18163;DHT22;9206;50.994;4.538;2024-02-23T09:00:06;5.90;99.90
18163;DHT22;9206;50.994;4.538;2024-02-23T09:02:57;6.00;99.90
18163;DHT22;9206;50.994;4.538;2024-02-23T09:05:48;5.90;99.90
18163;DHT22;9206;50.994;4.538;2024-02-23T09:08:35;5.90;99.90
18163;DHT22;9206;50.994;4.538;2024-02-23T09:11:25;6.00;99.90
18163;DHT22;9206;50.994;4.538;2024-02-23T09:14:14;6.00;99.90
18163;DHT22;9206;50.994;4.538;2024-02-23T09:17:04;6.00;99.90
18163;DHT22;9206;50.994;4.538;2024-02-23T09:19:55;6.10;99.90
18163;DHT22;9206;50.994;4.538;2024-02-23T09:22:51;6.10;99.90
18163;DHT22;9206;50.994;4.538;2024-02-23T09:25:52;6.10;99.90
18163;DHT22;9206;50.994;4.538;2024-02-23T09:28:39;6.20;99.90
18163;DHT22;9206;50.994;4.538;2024-02-23T09:31:28;6.30;99.90
18163;DHT22;9206;50.994;4.538;2024-02-23T09:34:17;6.30;99.90
18163;DHT22;9206;50.994;4.538;2024-02-23T09:37:12;6.40;99.90
18163;DHT22;9206;50.994;4.538;2024-02-23T09:40:01;6.60;99.90
18163;DHT22;9206;50.994;4.538;2024-02-23T09:43:00;6.60;99.90
18163;DHT22;9206;50.994;4.538;2024-02-23T09:45:51;6.80;99.90
18163;DHT22;9206;50.994;4.538;2024-02-23T09:48:38;6.90;99.90
18163;DHT22;9206;50.994;4.538;2024-02-23T09:51:29;7.20;99.90
18163;DHT22;9206;50.994;4.538;2024-02-23T09:54:23;7.50;99.90
18163;DHT22;9206;50.994;4.538;2024-02-23T09:57:11;7.80;99.90
18163;DHT22;9206;50.994;4.538;2024-02-23T09:59:58;7.80;99.90
18163;DHT22;9206;50.994;4.538;2024-02-23T10:02:45;8.00;99.90
18163;DHT22;9206;50.994;4.538;2024-02-23T10:05:35;8.00;99.90
18163;DHT22;9206;50.994;4.538;2024-02-23T10:08:24;7.90;99.90
18163;DHT22;9206;50.994;4.538;2024-02-23T10:11:12;7.90;99.90
18163;DHT22;9206;50.994;4.538;2024-02-23T10:14:04;7.90;99.90
18163;DHT22;9206;50.994;4.538;2024-02-23T10:16:56;8.00;99.90
18163;DHT22;9206;50.994;4.538;2024-02-23T10:19:45;8.30;99.90
18163;DHT22;9206;50.994;4.538;2024-02-23T10:22:37;8.30;99.90
18163;DHT22;9206;50.994;4.538;2024-02-23T10:25:27;8.30;99.90
18163;DHT22;9206;50.994;4.538;2024-02-23T10:28:32;8.10;99.90
18163;DHT22;9206;50.994;4.538;2024-02-23T10:31:23;8.00;99.90
18163;DHT22;9206;50.994;4.538;2024-02-23T10:34:31;7.90;99.90
18163;DHT22;9206;50.994;4.538;2024-02-23T10:37:22;7.90;99.90
18163;DHT22;9206;50.994;4.538;2024-02-23T10:40:12;8.00;99.90
18163;DHT22;9206;50.994;4.538;2024-02-23T10:43:18;8.30;99.90
18163;DHT22;9206;50.994;4.538;2024-02-23T10:46:42;8.60;99.90
18163;DHT22;9206;50.994;4.538;2024-02-23T10:49:33;8.90;99.90
18163;DHT22;9206;50.994;4.538;2024-02-23T10:52:27;9.10;99.90
18163;DHT22;9206;50.994;4.538;2024-02-23T10:55:22;9.10;99.90
18163;DHT22;9206;50.994;4.538;2024-02-23T10:58:19;9.00;99.90
18163;DHT22;9206;50.994;4.538;2024-02-23T11:01:29;8.90;99.90
18163;DHT22;9206;50.994;4.538;2024-02-23T11:04:35;8.60;99.90
18163;DHT22;9206;50.994;4.538;2024-02-23T11:07:25;8.50;99.90
18163;DHT22;9206;50.994;4.538;2024-02-23T11:10:15;8.60;99.90
18163;DHT22;9206;50.994;4.538;2024-02-23T11:13:08;8.70;99.90
18163;DHT22;9206;50.994;4.538;2024-02-23T11:16:01;8.70;99.90
18163;DHT22;9206;50.994;4.538;2024-02-23T11:19:03;8.80;99.90
18163;DHT22;9206;50.994;4.538;2024-02-23T11:21:58;8.80;99.90
18163;DHT22;9206;50.994;4.538;2024-02-23T11:24:49;8.90;99.90
18163;DHT22;9206;50.994;4.538;2024-02-23T11:27:39;9.30;99.90
18163;DHT22;9206;50.994;4.538;2024-02-23T11:30:28;9.40;99.90
18163;DHT22;9206;50.994;4.538;2024-02-23T11:33:25;9.20;99.90
18163;DHT22;9206;50.994;4.538;2024-02-23T11:36:13;9.10;99.90
18163;DHT22;9206;50.994;4.538;2024-02-23T11:43:03;9.40;99.90
18163;DHT22;9206;50.994;4.538;2024-02-23T11:45:55;9.20;99.90
18163;DHT22;9206;50.994;4.538;2024-02-23T11:48:44;9.10;99.90
18163;DHT22;9206;50.994;4.538;2024-02-23T11:51:36;8.90;99.90
18163;DHT22;9206;50.994;4.538;2024-02-23T11:54:24;8.80;99.90
18163;DHT22;9206;50.994;4.538;2024-02-23T11:57:13;8.60;99.90
18163;DHT22;9206;50.994;4.538;2024-02-23T12:00:01;8.60;99.90
18163;DHT22;9206;50.994;4.538;2024-02-23T12:02:52;8.50;99.90
18163;DHT22;9206;50.994;4.538;2024-02-23T12:05:45;8.50;99.90
18163;DHT22;9206;50.994;4.538;2024-02-23T12:08:42;8.50;99.90
18163;DHT22;9206;50.994;4.538;2024-02-23T12:11:34;8.50;99.90
18163;DHT22;9206;50.994;4.538;2024-02-23T12:14:25;8.40;99.90
18163;DHT22;9206;50.994;4.538;2024-02-23T12:17:12;8.50;99.90
18163;DHT22;9206;50.994;4.538;2024-02-23T12:20:00;8.40;99.90
18163;DHT22;9206;50.994;4.538;2024-02-23T12:22:49;8.40;99.90
18163;DHT22;9206;50.994;4.538;2024-02-23T12:25:39;8.40;99.90
18163;DHT22;9206;50.994;4.538;2024-02-23T12:28:29;8.50;99.90
18163;DHT22;9206;50.994;4.538;2024-02-23T12:31:24;8.50;99.90
18163;DHT22;9206;50.994;4.538;2024-02-23T12:34:16;8.50;99.90
18163;DHT22;9206;50.994;4.538;2024-02-23T12:37:14;8.60;99.90
18163;DHT22;9206;50.994;4.538;2024-02-23T12:40:06;8.80;99.90
18163;DHT22;9206;50.994;4.538;2024-02-23T12:42:54;8.80;99.90
18163;DHT22;9206;50.994;4.538;2024-02-23T12:45:49;8.90;99.90
18163;DHT22;9206;50.994;4.538;2024-02-23T12:48:38;9.10;99.90
18163;DHT22;9206;50.994;4.538;2024-02-23T12:51:28;9.30;99.90
18163;DHT22;9206;50.994;4.538;2024-02-23T12:54:16;9.30;99.90
18163;DHT22;9206;50.994;4.538;2024-02-23T12:57:09;9.20;99.90
18163;DHT22;9206;50.994;4.538;2024-02-23T12:59:56;9.20;99.90
18163;DHT22;9206;50.994;4.538;2024-02-23T13:02:47;9.30;99.90
18163;DHT22;9206;50.994;4.538;2024-02-23T13:05:39;9.60;99.90
18163;DHT22;9206;50.994;4.538;2024-02-23T13:08:28;9.90;99.90
18163;DHT22;9206;50.994;4.538;2024-02-23T13:11:16;9.90;99.90
18163;DHT22;9206;50.994;4.538;2024-02-23T13:14:05;9.70;99.90
18163;DHT22;9206;50.994;4.538;2024-02-23T13:16:55;9.80;99.90
18163;DHT22;9206;50.994;4.538;2024-02-23T13:19:42;9.60;99.90
18163;DHT22;9206;50.994;4.538;2024-02-23T13:22:32;9.50;99.90
18163;DHT22;9206;50.994;4.538;2024-02-23T13:25:22;9.40;99.90
18163;DHT22;9206;50.994;4.538;2024-02-23T13:28:09;9.30;99.90
18163;DHT22;9206;50.994;4.538;2024-02-23T13:30:58;9.30;99.90
18163;DHT22;9206;50.994;4.538;2024-02-23T13:33:51;9.20;99.90
18163;DHT22;9206;50.994;4.538;2024-02-23T13:36:42;9.10;99.90
18163;DHT22;9206;50.994;4.538;2024-02-23T13:39:30;9.20;99.90
18163;DHT22;9206;50.994;4.538;2024-02-23T13:42:18;9.20;99.90
18163;DHT22;9206;50.994;4.538;2024-02-23T13:45:17;9.40;99.90
18163;DHT22;9206;50.994;4.538;2024-02-23T13:48:04;9.60;99.90
18163;DHT22;9206;50.994;4.538;2024-02-23T13:50:55;9.70;99.90
18163;DHT22;9206;50.994;4.538;2024-02-23T13:53:43;9.70;99.90
18163;DHT22;9206;50.994;4.538;2024-02-23T13:56:35;9.80;99.90
18163;DHT22;9206;50.994;4.538;2024-02-23T13:59:25;10.00;99.90
18163;DHT22;9206;50.994;4.538;2024-02-23T14:02:15;10.20;99.90
18163;DHT22;9206;50.994;4.538;2024-02-23T14:05:09;10.30;99.90
18163;DHT22;9206;50.994;4.538;2024-02-23T14:07:58;11.00;99.90
18163;DHT22;9206;50.994;4.538;2024-02-23T14:10:47;11.00;99.90
18163;DHT22;9206;50.994;4.538;2024-02-23T14:13:41;10.90;99.90
18163;DHT22;9206;50.994;4.538;2024-02-23T14:16:30;10.90;99.90
18163;DHT22;9206;50.994;4.538;2024-02-23T14:19:22;10.90;99.90
18163;DHT22;9206;50.994;4.538;2024-02-23T14:22:13;10.60;99.90
18163;DHT22;9206;50.994;4.538;2024-02-23T14:25:03;10.50;99.90
18163;DHT22;9206;50.994;4.538;2024-02-23T14:27:51;10.40;99.90
18163;DHT22;9206;50.994;4.538;2024-02-23T14:30:43;10.20;99.90
18163;DHT22;9206;50.994;4.538;2024-02-23T14:33:33;10.10;99.90
18163;DHT22;9206;50.994;4.538;2024-02-23T14:36:20;10.10;99.90
18163;DHT22;9206;50.994;4.538;2024-02-23T14:39:09;10.10;99.90
18163;DHT22;9206;50.994;4.538;2024-02-23T14:42:00;10.10;99.90
18163;DHT22;9206;50.994;4.538;2024-02-23T14:44:51;10.10;99.90
18163;DHT22;9206;50.994;4.538;2024-02-23T14:47:42;10.20;99.90
18163;DHT22;9206;50.994;4.538;2024-02-23T14:50:30;10.30;99.90
18163;DHT22;9206;50.994;4.538;2024-02-23T14:53:19;10.50;99.90
18163;DHT22;9206;50.994;4.538;2024-02-23T14:56:06;10.30;99.90
18163;DHT22;9206;50.994;4.538;2024-02-23T14:58:54;10.10;99.90
18163;DHT22;9206;50.994;4.538;2024-02-23T15:01:45;10.00;99.90
18163;DHT22;9206;50.994;4.538;2024-02-23T15:04:34;9.80;99.90
18163;DHT22;9206;50.994;4.538;2024-02-23T15:07:43;9.70;99.90
18163;DHT22;9206;50.994;4.538;2024-02-23T15:10:34;9.60;99.90
18163;DHT22;9206;50.994;4.538;2024-02-23T15:13:24;9.50;99.90
18163;DHT22;9206;50.994;4.538;2024-02-23T15:16:12;9.60;99.90
18163;DHT22;9206;50.994;4.538;2024-02-23T15:19:02;9.60;99.90
18163;DHT22;9206;50.994;4.538;2024-02-23T15:21:54;9.80;99.90
18163;DHT22;9206;50.994;4.538;2024-02-23T15:24:53;9.90;99.90
18163;DHT22;9206;50.994;4.538;2024-02-23T15:27:44;9.90;99.90
18163;DHT22;9206;50.994;4.538;2024-02-23T15:30:32;9.70;99.90
18163;DHT22;9206;50.994;4.538;2024-02-23T15:33:21;9.70;99.90
18163;DHT22;9206;50.994;4.538;2024-02-23T15:36:12;10.00;99.90
18163;DHT22;9206;50.994;4.538;2024-02-23T15:39:10;10.00;99.90
18163;DHT22;9206;50.994;4.538;2024-02-23T15:41:59;9.80;99.90
18163;DHT22;9206;50.994;4.538;2024-02-23T15:44:50;9.70;99.90
18163;DHT22;9206;50.994;4.538;2024-02-23T15:47:39;9.50;99.90
18163;DHT22;9206;50.994;4.538;2024-02-23T15:50:27;9.40;99.90
18163;DHT22;9206;50.994;4.538;2024-02-23T15:53:19;9.40;99.90
18163;DHT22;9206;50.994;4.538;2024-02-23T15:56:44;9.30;99.90
18163;DHT22;9206;50.994;4.538;2024-02-23T15:59:31;9.30;99.90
18163;DHT22;9206;50.994;4.538;2024-02-23T16:02:19;9.30;99.90
18163;DHT22;9206;50.994;4.538;2024-02-23T16:05:22;9.20;99.90
18163;DHT22;9206;50.994;4.538;2024-02-23T16:08:11;9.20;99.90
18163;DHT22;9206;50.994;4.538;2024-02-23T16:11:01;9.30;99.90
18163;DHT22;9206;50.994;4.538;2024-02-23T16:13:53;9.30;99.90
18163;DHT22;9206;50.994;4.538;2024-02-23T16:16:43;9.20;99.90
18163;DHT22;9206;50.994;4.538;2024-02-23T16:19:33;9.20;99.90
18163;DHT22;9206;50.994;4.538;2024-02-23T16:22:25;9.20;99.90
18163;DHT22;9206;50.994;4.538;2024-02-23T16:25:15;9.20;99.90
18163;DHT22;9206;50.994;4.538;2024-02-23T16:28:03;9.20;99.90
18163;DHT22;9206;50.994;4.538;2024-02-23T16:30:54;9.20;99.90
18163;DHT22;9206;50.994;4.538;2024-02-23T16:33:42;9.20;99.90
18163;DHT22;9206;50.994;4.538;2024-02-23T16:36:31;9.10;99.90
18163;DHT22;9206;50.994;4.538;2024-02-23T16:39:19;9.10;99.90
18163;DHT22;9206;50.994;4.538;2024-02-23T16:42:09;9.10;99.90
18163;DHT22;9206;50.994;4.538;2024-02-23T16:44:58;9.10;99.90
18163;DHT22;9206;50.994;4.538;2024-02-23T16:47:48;9.00;99.90
18163;DHT22;9206;50.994;4.538;2024-02-23T16:50:41;9.00;99.90
18163;DHT22;9206;50.994;4.538;2024-02-23T16:53:45;9.00;99.90
18163;DHT22;9206;50.994;4.538;2024-02-23T16:56:36;8.90;99.90
18163;DHT22;9206;50.994;4.538;2024-02-23T16:59:39;8.90;99.90
18163;DHT22;9206;50.994;4.538;2024-02-23T17:02:32;8.90;99.90
18163;DHT22;9206;50.994;4.538;2024-02-23T17:05:24;8.90;99.90
18163;DHT22;9206;50.994;4.538;2024-02-23T17:08:11;8.80;99.90
18163;DHT22;9206;50.994;4.538;2024-02-23T17:11:00;8.70;99.90
18163;DHT22;9206;50.994;4.538;2024-02-23T17:13:53;8.60;99.90
18163;DHT22;9206;50.994;4.538;2024-02-23T17:16:43;8.60;99.90
18163;DHT22;9206;50.994;4.538;2024-02-23T17:19:31;8.50;99.90
18163;DHT22;9206;50.994;4.538;2024-02-23T17:22:20;8.50;99.90
18163;DHT22;9206;50.994;4.538;2024-02-23T17:25:10;8.50;99.90
18163;DHT22;9206;50.994;4.538;2024-02-23T17:27:58;8.40;99.90
18163;DHT22;9206;50.994;4.538;2024-02-23T17:30:45;8.40;99.90
18163;DHT22;9206;50.994;4.538;2024-02-23T17:33:33;8.30;99.90
18163;DHT22;9206;50.994;4.538;2024-02-23T17:36:20;8.30;99.90
18163;DHT22;9206;50.994;4.538;2024-02-23T17:39:10;8.20;99.90
18163;DHT22;9206;50.994;4.538;2024-02-23T17:41:57;8.20;99.90
18163;DHT22;9206;50.994;4.538;2024-02-23T17:44:46;8.20;99.90
18163;DHT22;9206;50.994;4.538;2024-02-23T17:47:36;8.10;99.90
18163;DHT22;9206;50.994;4.538;2024-02-23T17:50:26;8.20;99.90
18163;DHT22;9206;50.994;4.538;2024-02-23T17:53:21;8.20;99.90
18163;DHT22;9206;50.994;4.538;2024-02-23T17:56:17;8.20;99.90
18163;DHT22;9206;50.994;4.538;2024-02-23T17:59:20;8.30;99.90
18163;DHT22;9206;50.994;4.538;2024-02-23T18:02:07;8.30;99.90
18163;DHT22;9206;50.994;4.538;2024-02-23T18:04:55;8.30;99.90
18163;DHT22;9206;50.994;4.538;2024-02-23T18:07:42;8.30;99.90
18163;DHT22;9206;50.994;4.538;2024-02-23T18:10:29;8.30;99.90
18163;DHT22;9206;50.994;4.538;2024-02-23T18:13:21;8.20;99.90
18163;DHT22;9206;50.994;4.538;2024-02-23T18:16:10;8.30;99.90
18163;DHT22;9206;50.994;4.538;2024-02-23T18:18:59;8.30;99.90
18163;DHT22;9206;50.994;4.538;2024-02-23T18:21:50;8.20;99.90
18163;DHT22;9206;50.994;4.538;2024-02-23T18:24:43;8.20;99.90
18163;DHT22;9206;50.994;4.538;2024-02-23T18:27:34;8.20;99.90
18163;DHT22;9206;50.994;4.538;2024-02-23T18:30:23;8.10;99.90
18163;DHT22;9206;50.994;4.538;2024-02-23T18:33:10;8.10;99.90
18163;DHT22;9206;50.994;4.538;2024-02-23T18:35:57;8.00;99.90
18163;DHT22;9206;50.994;4.538;2024-02-23T18:38:46;8.00;99.90